This is the latest recevied weather packets stored in our database for station/object LA9UTA-13. If no packets are shown the sender has not sent any weather packets the latest 10 day(s).
| Time | Temp. | Humidity | Pressure | Rain* | Wind** | Luminosity | Snow |
|---|---|---|---|---|---|---|---|
| 1788162609 | 15.56° C | 84% | 1003.6 hPa | 0 mm | - | 147 W/m² | - |
| 1788161409 | 15° C | 86% | 1003.6 hPa | 0 mm | - | 96 W/m² | - |
| 1788160209 | 15° C | 86% | 1003.7 hPa | 0 mm | - | 70 W/m² | - |
| 1788159009 | 14.44° C | 90% | 1003.7 hPa | 0 mm | - | 56 W/m² | - |
| 1788157809 | 14.44° C | 91% | 1003.7 hPa | 0 mm | - | 45 W/m² | - |
| 1788156609 | 14.44° C | 90% | 1003.7 hPa | 0 mm | - | 38 W/m² | - |
| 1788155409 | 14.44° C | 90% | 1002.7 hPa | 0 mm | - | 45 W/m² | - |
| 1788153009 | 13.89° C | 92% | 1002.7 hPa | 0 mm | - | 21 W/m² | - |
| 1788151809 | 13.89° C | 92% | 1002.7 hPa | 0 mm | - | 14 W/m² | - |
| 1788150610 | 13.89° C | 93% | 1002.7 hPa | 0 mm | - | 4 W/m² | - |
| 1788149409 | 14.44° C | 92% | 1002.7 hPa | 0 mm | - | 2 W/m² | - |
| 1788148209 | 13.89° C | 94% | 1002.7 hPa | 0 mm | - | 0 W/m² | - |
| 1788147009 | 14.44° C | 94% | 1002.7 hPa | 0 mm | - | 0 W/m² | - |
| 1788145809 | 14.44° C | 94% | 1002.7 hPa | 0 mm | - | 0 W/m² | - |
| 1788115809 | 15.56° C | 87% | 1001.6 hPa | 0 mm | - | 0 W/m² | - |
| 1788114609 | 15.56° C | 87% | 1001.6 hPa | 0 mm | - | 1 W/m² | - |
| 1788108609 | 17.22° C | 82% | 1001.4 hPa | 0 mm | - | 55 W/m² | - |
| 1788105010 | 17.78° C | 79% | 1001.4 hPa | 0 mm | - | 92 W/m² | - |
| 1788103809 | 18.33° C | 76% | 1001.3 hPa | 0 mm | - | 159 W/m² | - |
| 1788100209 | 19.44° C | 71% | 1001.2 hPa | 0 mm | - | 108 W/m² | - |
| 1788099009 | 22.22° C | 62% | 999.9 hPa | 0 mm | - | 384 W/m² | - |
| 1788093010 | 18.89° C | 73% | 1000.2 hPa | 0 mm | - | 215 W/m² | - |
| 1788092258 | 15.56° C | 94% | 1000.5 hPa | 2.29 mm | - | 12 W/m² | - |
| 1788091809 | 17.78° C | 77% | 1001.4 hPa | 0 mm | - | 250 W/m² | - |
| 1788090609 | 17.78° C | 78% | 1001.4 hPa | 0 mm | - | 218 W/m² | - |
* Rain latest hour (hover to see other rain measurements)
** Current wind speed in m/s (hover to see current wind gust speed)